sensor_id;sensor_type;location;lat;lon;timestamp;P1;durP1;ratioP1;P2;durP2;ratioP2
54683;SDS011;40582;53.100;6.686;2022-12-04T00:00:10;54.38;;;31.98;;
54683;SDS011;40582;53.100;6.686;2022-12-04T00:02:38;54.53;;;32.00;;
54683;SDS011;40582;53.100;6.686;2022-12-04T00:05:05;53.88;;;32.55;;
54683;SDS011;40582;53.100;6.686;2022-12-04T00:07:32;55.40;;;32.60;;
54683;SDS011;40582;53.100;6.686;2022-12-04T00:09:58;52.85;;;32.85;;
54683;SDS011;40582;53.100;6.686;2022-12-04T00:12:24;63.03;;;34.17;;
54683;SDS011;40582;53.100;6.686;2022-12-04T00:14:50;57.35;;;33.50;;
54683;SDS011;40582;53.100;6.686;2022-12-04T00:17:15;56.20;;;34.08;;
54683;SDS011;40582;53.100;6.686;2022-12-04T00:19:41;53.97;;;33.72;;
54683;SDS011;40582;53.100;6.686;2022-12-04T00:22:07;55.95;;;33.55;;
54683;SDS011;40582;53.100;6.686;2022-12-04T00:24:33;60.35;;;35.28;;
54683;SDS011;40582;53.100;6.686;2022-12-04T00:26:58;58.50;;;34.28;;
54683;SDS011;40582;53.100;6.686;2022-12-04T00:29:24;62.97;;;36.22;;
54683;SDS011;40582;53.100;6.686;2022-12-04T00:31:50;62.88;;;35.75;;
54683;SDS011;40582;53.100;6.686;2022-12-04T00:34:16;64.05;;;34.65;;
54683;SDS011;40582;53.100;6.686;2022-12-04T00:36:41;60.28;;;35.35;;
54683;SDS011;40582;53.100;6.686;2022-12-04T00:39:07;61.92;;;36.25;;
54683;SDS011;40582;53.100;6.686;2022-12-04T00:41:33;62.33;;;35.58;;
54683;SDS011;40582;53.100;6.686;2022-12-04T00:43:59;62.20;;;36.42;;
54683;SDS011;40582;53.100;6.686;2022-12-04T00:46:26;60.85;;;37.30;;
54683;SDS011;40582;53.100;6.686;2022-12-04T00:48:52;61.95;;;36.72;;
54683;SDS011;40582;53.100;6.686;2022-12-04T00:51:19;56.03;;;34.60;;
54683;SDS011;40582;53.100;6.686;2022-12-04T00:53:47;61.88;;;37.22;;
54683;SDS011;40582;53.100;6.686;2022-12-04T00:56:16;65.03;;;38.15;;
54683;SDS011;40582;53.100;6.686;2022-12-04T00:58:50;69.18;;;38.80;;
54683;SDS011;40582;53.100;6.686;2022-12-04T01:01:17;60.15;;;38.50;;
54683;SDS011;40582;53.100;6.686;2022-12-04T01:03:44;64.70;;;38.97;;
54683;SDS011;40582;53.100;6.686;2022-12-04T01:06:45;60.90;;;38.55;;
54683;SDS011;40582;53.100;6.686;2022-12-04T01:09:03;61.85;;;39.58;;
54683;SDS011;40582;53.100;6.686;2022-12-04T01:11:30;66.93;;;40.38;;
54683;SDS011;40582;53.100;6.686;2022-12-04T01:13:56;63.80;;;37.72;;
54683;SDS011;40582;53.100;6.686;2022-12-04T01:16:30;64.10;;;39.40;;
54683;SDS011;40582;53.100;6.686;2022-12-04T01:18:57;71.90;;;43.00;;
54683;SDS011;40582;53.100;6.686;2022-12-04T01:21:23;71.03;;;42.40;;
54683;SDS011;40582;53.100;6.686;2022-12-04T01:23:49;65.70;;;41.25;;
54683;SDS011;40582;53.100;6.686;2022-12-04T01:26:14;72.75;;;41.20;;
54683;SDS011;40582;53.100;6.686;2022-12-04T01:28:40;66.75;;;42.67;;
54683;SDS011;40582;53.100;6.686;2022-12-04T01:33:37;67.53;;;41.08;;
54683;SDS011;40582;53.100;6.686;2022-12-04T01:36:04;67.18;;;41.95;;
54683;SDS011;40582;53.100;6.686;2022-12-04T01:38:32;69.05;;;42.47;;
54683;SDS011;40582;53.100;6.686;2022-12-04T01:40:59;63.38;;;40.95;;
54683;SDS011;40582;53.100;6.686;2022-12-04T01:43:27;71.20;;;41.63;;
54683;SDS011;40582;53.100;6.686;2022-12-04T01:45:55;71.43;;;42.63;;
54683;SDS011;40582;53.100;6.686;2022-12-04T01:51:29;66.78;;;41.17;;
54683;SDS011;40582;53.100;6.686;2022-12-04T01:54:03;70.93;;;42.25;;
54683;SDS011;40582;53.100;6.686;2022-12-04T01:56:33;71.53;;;44.50;;
54683;SDS011;40582;53.100;6.686;2022-12-04T01:59:06;73.47;;;44.03;;
54683;SDS011;40582;53.100;6.686;2022-12-04T02:01:35;73.05;;;44.63;;
54683;SDS011;40582;53.100;6.686;2022-12-04T02:04:06;74.28;;;44.75;;
54683;SDS011;40582;53.100;6.686;2022-12-04T02:06:32;74.68;;;45.63;;
54683;SDS011;40582;53.100;6.686;2022-12-04T02:08:58;78.22;;;45.90;;
54683;SDS011;40582;53.100;6.686;2022-12-04T02:11:42;77.00;;;46.65;;
54683;SDS011;40582;53.100;6.686;2022-12-04T02:16:56;74.65;;;45.88;;
54683;SDS011;40582;53.100;6.686;2022-12-04T02:19:41;77.15;;;45.20;;
54683;SDS011;40582;53.100;6.686;2022-12-04T02:28:22;72.53;;;46.05;;
54683;SDS011;40582;53.100;6.686;2022-12-04T02:31:01;75.65;;;46.72;;
54683;SDS011;40582;53.100;6.686;2022-12-04T02:33:30;74.10;;;45.05;;
54683;SDS011;40582;53.100;6.686;2022-12-04T02:36:07;75.82;;;46.97;;
54683;SDS011;40582;53.100;6.686;2022-12-04T02:38:39;77.53;;;45.75;;
54683;SDS011;40582;53.100;6.686;2022-12-04T02:41:13;79.32;;;47.17;;
54683;SDS011;40582;53.100;6.686;2022-12-04T02:43:43;78.22;;;45.55;;
54683;SDS011;40582;53.100;6.686;2022-12-04T02:46:17;76.25;;;45.75;;
54683;SDS011;40582;53.100;6.686;2022-12-04T02:48:47;68.75;;;46.25;;
54683;SDS011;40582;53.100;6.686;2022-12-04T02:51:16;77.47;;;47.50;;
54683;SDS011;40582;53.100;6.686;2022-12-04T02:53:46;72.90;;;47.60;;
54683;SDS011;40582;53.100;6.686;2022-12-04T02:56:15;74.07;;;46.22;;
54683;SDS011;40582;53.100;6.686;2022-12-04T02:58:50;73.38;;;47.22;;
54683;SDS011;40582;53.100;6.686;2022-12-04T03:01:25;76.88;;;48.80;;
54683;SDS011;40582;53.100;6.686;2022-12-04T03:04:19;78.85;;;47.75;;
54683;SDS011;40582;53.100;6.686;2022-12-04T03:06:55;73.63;;;47.63;;
54683;SDS011;40582;53.100;6.686;2022-12-04T03:09:29;80.82;;;49.30;;
54683;SDS011;40582;53.100;6.686;2022-12-04T03:12:46;82.35;;;49.80;;
54683;SDS011;40582;53.100;6.686;2022-12-04T03:15:21;84.50;;;47.22;;
54683;SDS011;40582;53.100;6.686;2022-12-04T03:17:52;81.65;;;47.97;;
54683;SDS011;40582;53.100;6.686;2022-12-04T03:20:25;73.50;;;49.10;;
54683;SDS011;40582;53.100;6.686;2022-12-04T03:22:54;76.78;;;49.50;;
54683;SDS011;40582;53.100;6.686;2022-12-04T03:25:27;81.07;;;49.45;;
54683;SDS011;40582;53.100;6.686;2022-12-04T03:27:59;77.35;;;47.80;;
54683;SDS011;40582;53.100;6.686;2022-12-04T03:30:36;78.43;;;48.42;;
54683;SDS011;40582;53.100;6.686;2022-12-04T03:38:20;81.65;;;51.45;;
54683;SDS011;40582;53.100;6.686;2022-12-04T03:44:11;79.00;;;50.20;;
54683;SDS011;40582;53.100;6.686;2022-12-04T03:49:17;82.72;;;51.38;;
54683;SDS011;40582;53.100;6.686;2022-12-04T03:51:50;81.60;;;51.22;;
54683;SDS011;40582;53.100;6.686;2022-12-04T03:54:32;84.75;;;49.22;;
54683;SDS011;40582;53.100;6.686;2022-12-04T03:57:03;82.07;;;49.28;;
54683;SDS011;40582;53.100;6.686;2022-12-04T03:59:34;82.22;;;50.65;;
54683;SDS011;40582;53.100;6.686;2022-12-04T04:02:04;85.18;;;51.72;;
54683;SDS011;40582;53.100;6.686;2022-12-04T04:04:35;83.43;;;50.25;;
54683;SDS011;40582;53.100;6.686;2022-12-04T04:07:12;84.65;;;52.58;;
54683;SDS011;40582;53.100;6.686;2022-12-04T04:09:46;80.28;;;51.47;;
54683;SDS011;40582;53.100;6.686;2022-12-04T04:12:19;82.35;;;51.65;;
54683;SDS011;40582;53.100;6.686;2022-12-04T04:14:52;75.38;;;48.85;;
54683;SDS011;40582;53.100;6.686;2022-12-04T04:17:41;78.13;;;50.35;;
54683;SDS011;40582;53.100;6.686;2022-12-04T04:20:40;80.93;;;50.22;;
54683;SDS011;40582;53.100;6.686;2022-12-04T04:23:44;81.15;;;51.88;;
54683;SDS011;40582;53.100;6.686;2022-12-04T04:26:34;78.25;;;51.90;;
54683;SDS011;40582;53.100;6.686;2022-12-04T04:29:04;82.32;;;50.58;;
54683;SDS011;40582;53.100;6.686;2022-12-04T04:42:08;83.22;;;51.40;;
54683;SDS011;40582;53.100;6.686;2022-12-04T04:47:20;83.35;;;52.70;;
54683;SDS011;40582;53.100;6.686;2022-12-04T04:49:52;80.43;;;51.47;;
54683;SDS011;40582;53.100;6.686;2022-12-04T04:52:19;82.28;;;52.17;;
54683;SDS011;40582;53.100;6.686;2022-12-04T04:54:48;81.25;;;52.15;;
54683;SDS011;40582;53.100;6.686;2022-12-04T04:57:24;80.38;;;51.67;;
54683;SDS011;40582;53.100;6.686;2022-12-04T04:59:51;81.63;;;52.58;;
54683;SDS011;40582;53.100;6.686;2022-12-04T05:02:16;83.10;;;53.28;;
54683;SDS011;40582;53.100;6.686;2022-12-04T05:04:42;80.47;;;52.38;;
54683;SDS011;40582;53.100;6.686;2022-12-04T05:07:07;80.18;;;51.20;;
54683;SDS011;40582;53.100;6.686;2022-12-04T05:09:33;86.97;;;52.45;;
54683;SDS011;40582;53.100;6.686;2022-12-04T05:11:59;81.00;;;49.92;;
54683;SDS011;40582;53.100;6.686;2022-12-04T05:14:24;78.75;;;50.00;;
54683;SDS011;40582;53.100;6.686;2022-12-04T05:16:50;82.82;;;52.25;;
54683;SDS011;40582;53.100;6.686;2022-12-04T05:19:16;88.05;;;52.53;;
54683;SDS011;40582;53.100;6.686;2022-12-04T05:22:00;79.55;;;51.03;;
54683;SDS011;40582;53.100;6.686;2022-12-04T05:24:25;79.78;;;50.75;;
54683;SDS011;40582;53.100;6.686;2022-12-04T05:26:51;79.32;;;51.08;;
54683;SDS011;40582;53.100;6.686;2022-12-04T05:29:17;80.90;;;51.65;;
54683;SDS011;40582;53.100;6.686;2022-12-04T05:31:42;77.25;;;52.17;;
54683;SDS011;40582;53.100;6.686;2022-12-04T05:34:08;76.90;;;51.55;;
54683;SDS011;40582;53.100;6.686;2022-12-04T05:36:34;83.60;;;52.10;;
54683;SDS011;40582;53.100;6.686;2022-12-04T05:38:59;83.40;;;52.97;;
54683;SDS011;40582;53.100;6.686;2022-12-04T05:41:25;79.30;;;53.20;;
54683;SDS011;40582;53.100;6.686;2022-12-04T05:43:51;80.95;;;52.58;;
54683;SDS011;40582;53.100;6.686;2022-12-04T05:46:16;77.45;;;52.17;;
54683;SDS011;40582;53.100;6.686;2022-12-04T05:48:42;84.45;;;49.92;;
54683;SDS011;40582;53.100;6.686;2022-12-04T05:51:08;85.03;;;52.67;;
54683;SDS011;40582;53.100;6.686;2022-12-04T05:53:34;81.95;;;51.92;;
54683;SDS011;40582;53.100;6.686;2022-12-04T05:56:01;79.30;;;52.92;;
54683;SDS011;40582;53.100;6.686;2022-12-04T05:58:29;80.32;;;50.92;;
54683;SDS011;40582;53.100;6.686;2022-12-04T06:00:55;81.75;;;52.88;;
54683;SDS011;40582;53.100;6.686;2022-12-04T06:03:20;78.10;;;51.10;;
54683;SDS011;40582;53.100;6.686;2022-12-04T06:05:46;78.32;;;51.35;;
54683;SDS011;40582;53.100;6.686;2022-12-04T06:08:12;80.28;;;51.60;;
54683;SDS011;40582;53.100;6.686;2022-12-04T06:10:38;76.88;;;50.72;;
54683;SDS011;40582;53.100;6.686;2022-12-04T06:13:04;80.55;;;51.03;;
54683;SDS011;40582;53.100;6.686;2022-12-04T06:15:31;77.75;;;50.88;;
54683;SDS011;40582;53.100;6.686;2022-12-04T06:18:00;76.13;;;49.15;;
54683;SDS011;40582;53.100;6.686;2022-12-04T06:20:26;76.97;;;50.50;;
54683;SDS011;40582;53.100;6.686;2022-12-04T06:22:52;79.72;;;50.78;;
54683;SDS011;40582;53.100;6.686;2022-12-04T06:25:17;80.75;;;51.90;;
54683;SDS011;40582;53.100;6.686;2022-12-04T06:27:43;79.43;;;50.08;;
54683;SDS011;40582;53.100;6.686;2022-12-04T06:30:09;81.07;;;52.85;;
54683;SDS011;40582;53.100;6.686;2022-12-04T06:32:35;80.43;;;52.08;;
54683;SDS011;40582;53.100;6.686;2022-12-04T06:35:00;83.32;;;52.92;;
54683;SDS011;40582;53.100;6.686;2022-12-04T06:37:26;85.22;;;53.75;;
54683;SDS011;40582;53.100;6.686;2022-12-04T06:39:52;82.65;;;52.25;;
54683;SDS011;40582;53.100;6.686;2022-12-04T06:42:17;87.88;;;53.80;;
54683;SDS011;40582;53.100;6.686;2022-12-04T06:44:43;86.90;;;53.92;;
54683;SDS011;40582;53.100;6.686;2022-12-04T06:47:09;85.53;;;51.83;;
54683;SDS011;40582;53.100;6.686;2022-12-04T06:49:34;80.63;;;51.90;;
54683;SDS011;40582;53.100;6.686;2022-12-04T06:52:00;85.35;;;52.53;;
54683;SDS011;40582;53.100;6.686;2022-12-04T06:54:26;86.07;;;54.60;;
54683;SDS011;40582;53.100;6.686;2022-12-04T06:56:51;86.18;;;53.72;;
54683;SDS011;40582;53.100;6.686;2022-12-04T06:59:17;96.47;;;55.63;;
54683;SDS011;40582;53.100;6.686;2022-12-04T07:01:43;89.80;;;54.90;;
54683;SDS011;40582;53.100;6.686;2022-12-04T07:04:08;90.68;;;55.30;;
54683;SDS011;40582;53.100;6.686;2022-12-04T07:06:35;86.78;;;53.45;;
54683;SDS011;40582;53.100;6.686;2022-12-04T07:09:09;91.85;;;54.92;;
54683;SDS011;40582;53.100;6.686;2022-12-04T07:11:38;89.75;;;55.85;;
54683;SDS011;40582;53.100;6.686;2022-12-04T07:14:05;91.20;;;54.47;;
54683;SDS011;40582;53.100;6.686;2022-12-04T07:16:31;93.50;;;54.00;;
54683;SDS011;40582;53.100;6.686;2022-12-04T07:18:57;87.13;;;52.53;;
54683;SDS011;40582;53.100;6.686;2022-12-04T07:21:27;90.10;;;54.95;;
54683;SDS011;40582;53.100;6.686;2022-12-04T07:23:55;90.80;;;55.17;;
54683;SDS011;40582;53.100;6.686;2022-12-04T07:26:23;97.18;;;57.63;;
54683;SDS011;40582;53.100;6.686;2022-12-04T07:28:50;89.30;;;53.45;;
54683;SDS011;40582;53.100;6.686;2022-12-04T07:31:17;91.63;;;55.22;;
54683;SDS011;40582;53.100;6.686;2022-12-04T07:33:46;96.65;;;57.25;;
54683;SDS011;40582;53.100;6.686;2022-12-04T07:36:13;99.13;;;58.22;;
54683;SDS011;40582;53.100;6.686;2022-12-04T07:38:41;95.25;;;56.17;;
54683;SDS011;40582;53.100;6.686;2022-12-04T07:41:07;98.47;;;57.92;;
54683;SDS011;40582;53.100;6.686;2022-12-04T07:43:34;90.90;;;54.67;;
54683;SDS011;40582;53.100;6.686;2022-12-04T07:46:08;94.57;;;55.95;;
54683;SDS011;40582;53.100;6.686;2022-12-04T07:48:36;99.53;;;56.17;;
54683;SDS011;40582;53.100;6.686;2022-12-04T07:51:06;102.95;;;56.22;;
54683;SDS011;40582;53.100;6.686;2022-12-04T07:53:58;100.55;;;56.97;;
54683;SDS011;40582;53.100;6.686;2022-12-04T07:56:24;92.22;;;55.20;;
54683;SDS011;40582;53.100;6.686;2022-12-04T07:58:50;90.22;;;55.42;;
54683;SDS011;40582;53.100;6.686;2022-12-04T08:01:20;89.20;;;52.83;;
54683;SDS011;40582;53.100;6.686;2022-12-04T08:03:48;92.25;;;54.22;;
54683;SDS011;40582;53.100;6.686;2022-12-04T08:06:16;98.22;;;54.45;;
54683;SDS011;40582;53.100;6.686;2022-12-04T08:08:43;93.22;;;53.67;;
54683;SDS011;40582;53.100;6.686;2022-12-04T08:11:10;88.70;;;53.28;;
54683;SDS011;40582;53.100;6.686;2022-12-04T08:13:37;91.53;;;51.80;;
54683;SDS011;40582;53.100;6.686;2022-12-04T08:16:04;92.53;;;52.83;;
54683;SDS011;40582;53.100;6.686;2022-12-04T08:18:31;89.53;;;53.15;;
54683;SDS011;40582;53.100;6.686;2022-12-04T08:21:03;84.63;;;52.45;;
54683;SDS011;40582;53.100;6.686;2022-12-04T08:23:40;84.85;;;53.55;;
54683;SDS011;40582;53.100;6.686;2022-12-04T08:26:07;83.10;;;50.20;;
54683;SDS011;40582;53.100;6.686;2022-12-04T08:28:32;84.88;;;52.53;;
54683;SDS011;40582;53.100;6.686;2022-12-04T08:31:05;80.18;;;50.05;;
54683;SDS011;40582;53.100;6.686;2022-12-04T08:33:39;82.72;;;50.13;;
54683;SDS011;40582;53.100;6.686;2022-12-04T08:36:07;85.60;;;51.42;;
54683;SDS011;40582;53.100;6.686;2022-12-04T08:38:34;80.80;;;48.88;;
54683;SDS011;40582;53.100;6.686;2022-12-04T08:41:01;76.55;;;48.17;;
54683;SDS011;40582;53.100;6.686;2022-12-04T08:43:28;82.32;;;48.78;;
54683;SDS011;40582;53.100;6.686;2022-12-04T08:46:04;80.65;;;48.92;;
54683;SDS011;40582;53.100;6.686;2022-12-04T08:48:33;79.60;;;49.85;;
54683;SDS011;40582;53.100;6.686;2022-12-04T08:50:59;80.60;;;50.90;;
54683;SDS011;40582;53.100;6.686;2022-12-04T08:53:25;84.78;;;50.72;;
54683;SDS011;40582;53.100;6.686;2022-12-04T08:55:51;75.93;;;49.00;;
54683;SDS011;40582;53.100;6.686;2022-12-04T08:58:17;76.20;;;46.50;;
54683;SDS011;40582;53.100;6.686;2022-12-04T09:00:44;77.45;;;48.53;;
54683;SDS011;40582;53.100;6.686;2022-12-04T09:03:13;77.18;;;49.65;;
54683;SDS011;40582;53.100;6.686;2022-12-04T09:05:41;82.68;;;48.10;;
54683;SDS011;40582;53.100;6.686;2022-12-04T09:08:09;74.43;;;48.45;;
54683;SDS011;40582;53.100;6.686;2022-12-04T09:10:36;82.63;;;48.63;;
54683;SDS011;40582;53.100;6.686;2022-12-04T09:13:02;78.93;;;50.35;;
54683;SDS011;40582;53.100;6.686;2022-12-04T09:15:28;70.90;;;44.15;;
54683;SDS011;40582;53.100;6.686;2022-12-04T09:17:54;76.75;;;46.65;;
54683;SDS011;40582;53.100;6.686;2022-12-04T09:20:20;70.50;;;46.33;;
54683;SDS011;40582;53.100;6.686;2022-12-04T09:22:46;72.32;;;47.53;;
54683;SDS011;40582;53.100;6.686;2022-12-04T09:25:11;74.72;;;46.38;;
54683;SDS011;40582;53.100;6.686;2022-12-04T09:27:37;73.13;;;45.78;;
54683;SDS011;40582;53.100;6.686;2022-12-04T09:30:06;72.10;;;46.92;;
54683;SDS011;40582;53.100;6.686;2022-12-04T09:32:33;71.07;;;46.00;;
54683;SDS011;40582;53.100;6.686;2022-12-04T09:34:58;71.53;;;45.80;;
54683;SDS011;40582;53.100;6.686;2022-12-04T09:37:24;68.90;;;43.75;;
54683;SDS011;40582;53.100;6.686;2022-12-04T09:39:50;69.50;;;45.00;;
54683;SDS011;40582;53.100;6.686;2022-12-04T09:45:13;63.58;;;41.97;;
54683;SDS011;40582;53.100;6.686;2022-12-04T09:47:45;69.50;;;45.47;;
54683;SDS011;40582;53.100;6.686;2022-12-04T09:53:02;66.43;;;43.08;;
54683;SDS011;40582;53.100;6.686;2022-12-04T09:58:52;63.72;;;41.40;;
54683;SDS011;40582;53.100;6.686;2022-12-04T10:04:14;57.83;;;39.20;;
54683;SDS011;40582;53.100;6.686;2022-12-04T10:09:51;55.55;;;36.63;;
54683;SDS011;40582;53.100;6.686;2022-12-04T10:12:21;54.78;;;36.10;;
54683;SDS011;40582;53.100;6.686;2022-12-04T10:25:10;48.83;;;32.10;;
54683;SDS011;40582;53.100;6.686;2022-12-04T10:30:33;50.20;;;31.83;;
54683;SDS011;40582;53.100;6.686;2022-12-04T10:35:57;47.65;;;31.02;;
54683;SDS011;40582;53.100;6.686;2022-12-04T10:41:49;43.70;;;30.52;;
54683;SDS011;40582;53.100;6.686;2022-12-04T10:44:23;45.45;;;30.55;;
54683;SDS011;40582;53.100;6.686;2022-12-04T10:46:49;44.97;;;29.88;;
54683;SDS011;40582;53.100;6.686;2022-12-04T10:49:21;45.85;;;30.60;;
54683;SDS011;40582;53.100;6.686;2022-12-04T10:51:52;45.50;;;30.25;;
54683;SDS011;40582;53.100;6.686;2022-12-04T10:57:08;47.45;;;30.25;;
54683;SDS011;40582;53.100;6.686;2022-12-04T10:59:38;46.72;;;30.10;;
54683;SDS011;40582;53.100;6.686;2022-12-04T11:04:51;40.92;;;27.83;;
54683;SDS011;40582;53.100;6.686;2022-12-04T11:07:23;42.30;;;27.70;;
54683;SDS011;40582;53.100;6.686;2022-12-04T11:10:00;40.55;;;28.27;;
54683;SDS011;40582;53.100;6.686;2022-12-04T11:12:30;41.67;;;27.90;;
54683;SDS011;40582;53.100;6.686;2022-12-04T11:17:28;38.42;;;26.35;;
54683;SDS011;40582;53.100;6.686;2022-12-04T11:22:56;34.72;;;24.23;;
54683;SDS011;40582;53.100;6.686;2022-12-04T11:25:26;34.70;;;23.42;;
54683;SDS011;40582;53.100;6.686;2022-12-04T11:27:58;32.40;;;23.98;;
54683;SDS011;40582;53.100;6.686;2022-12-04T11:30:28;33.70;;;22.80;;
54683;SDS011;40582;53.100;6.686;2022-12-04T11:32:58;32.95;;;22.48;;
54683;SDS011;40582;53.100;6.686;2022-12-04T11:35:24;33.70;;;24.02;;
54683;SDS011;40582;53.100;6.686;2022-12-04T11:38:03;35.15;;;24.30;;
54683;SDS011;40582;53.100;6.686;2022-12-04T11:40:37;34.85;;;24.23;;
54683;SDS011;40582;53.100;6.686;2022-12-04T11:43:04;35.58;;;23.95;;
54683;SDS011;40582;53.100;6.686;2022-12-04T11:45:37;37.28;;;25.20;;
54683;SDS011;40582;53.100;6.686;2022-12-04T11:48:11;36.15;;;24.88;;
54683;SDS011;40582;53.100;6.686;2022-12-04T11:50:43;39.95;;;26.02;;
54683;SDS011;40582;53.100;6.686;2022-12-04T12:01:34;35.47;;;24.48;;
54683;SDS011;40582;53.100;6.686;2022-12-04T12:12:47;33.97;;;23.63;;
54683;SDS011;40582;53.100;6.686;2022-12-04T12:18:13;36.80;;;24.90;;
54683;SDS011;40582;53.100;6.686;2022-12-04T12:26:10;33.28;;;23.08;;
54683;SDS011;40582;53.100;6.686;2022-12-04T12:28:45;35.53;;;24.58;;
54683;SDS011;40582;53.100;6.686;2022-12-04T12:31:34;37.65;;;24.60;;
54683;SDS011;40582;53.100;6.686;2022-12-04T12:34:25;33.35;;;24.35;;
54683;SDS011;40582;53.100;6.686;2022-12-04T12:36:51;37.88;;;24.50;;
54683;SDS011;40582;53.100;6.686;2022-12-04T12:41:52;36.35;;;25.15;;
54683;SDS011;40582;53.100;6.686;2022-12-04T12:44:21;39.50;;;26.00;;
54683;SDS011;40582;53.100;6.686;2022-12-04T12:47:06;38.05;;;25.38;;
54683;SDS011;40582;53.100;6.686;2022-12-04T12:55:12;37.78;;;25.30;;
54683;SDS011;40582;53.100;6.686;2022-12-04T12:57:42;37.85;;;24.83;;
54683;SDS011;40582;53.100;6.686;2022-12-04T13:00:20;38.08;;;25.40;;
54683;SDS011;40582;53.100;6.686;2022-12-04T13:02:59;36.47;;;25.13;;
54683;SDS011;40582;53.100;6.686;2022-12-04T13:05:50;39.38;;;25.17;;
54683;SDS011;40582;53.100;6.686;2022-12-04T13:08:22;38.72;;;25.50;;
54683;SDS011;40582;53.100;6.686;2022-12-04T13:13:42;39.42;;;26.38;;
54683;SDS011;40582;53.100;6.686;2022-12-04T13:16:27;35.50;;;25.75;;
54683;SDS011;40582;53.100;6.686;2022-12-04T13:19:03;40.70;;;27.98;;
54683;SDS011;40582;53.100;6.686;2022-12-04T13:21:44;42.40;;;26.38;;
54683;SDS011;40582;53.100;6.686;2022-12-04T13:24:22;38.22;;;25.58;;
54683;SDS011;40582;53.100;6.686;2022-12-04T13:30:09;40.17;;;27.40;;
54683;SDS011;40582;53.100;6.686;2022-12-04T13:40:52;44.53;;;27.50;;
54683;SDS011;40582;53.100;6.686;2022-12-04T13:43:26;45.35;;;28.42;;
54683;SDS011;40582;53.100;6.686;2022-12-04T13:45:56;41.53;;;27.88;;
54683;SDS011;40582;53.100;6.686;2022-12-04T13:48:30;44.70;;;27.63;;
54683;SDS011;40582;53.100;6.686;2022-12-04T13:51:06;48.10;;;29.88;;
54683;SDS011;40582;53.100;6.686;2022-12-04T13:53:38;47.28;;;29.25;;
54683;SDS011;40582;53.100;6.686;2022-12-04T13:56:06;46.75;;;29.98;;
54683;SDS011;40582;53.100;6.686;2022-12-04T13:58:57;48.05;;;30.15;;
54683;SDS011;40582;53.100;6.686;2022-12-04T14:01:28;48.60;;;30.35;;
54683;SDS011;40582;53.100;6.686;2022-12-04T14:04:00;48.22;;;30.77;;
54683;SDS011;40582;53.100;6.686;2022-12-04T14:06:34;52.25;;;31.20;;
54683;SDS011;40582;53.100;6.686;2022-12-04T14:09:20;53.90;;;31.13;;
54683;SDS011;40582;53.100;6.686;2022-12-04T14:11:52;53.85;;;33.47;;
54683;SDS011;40582;53.100;6.686;2022-12-04T14:14:27;62.13;;;36.60;;
54683;SDS011;40582;53.100;6.686;2022-12-04T14:19:57;64.65;;;39.38;;
54683;SDS011;40582;53.100;6.686;2022-12-04T14:22:39;67.32;;;39.65;;
54683;SDS011;40582;53.100;6.686;2022-12-04T14:32:36;70.72;;;38.90;;
54683;SDS011;40582;53.100;6.686;2022-12-04T14:35:12;67.80;;;40.78;;
54683;SDS011;40582;53.100;6.686;2022-12-04T14:37:41;64.35;;;40.13;;
54683;SDS011;40582;53.100;6.686;2022-12-04T14:40:15;61.55;;;39.60;;
54683;SDS011;40582;53.100;6.686;2022-12-04T14:42:46;66.85;;;39.85;;
54683;SDS011;40582;53.100;6.686;2022-12-04T14:46:00;66.82;;;38.10;;
54683;SDS011;40582;53.100;6.686;2022-12-04T14:54:20;55.55;;;35.28;;
54683;SDS011;40582;53.100;6.686;2022-12-04T14:59:59;52.92;;;31.35;;
54683;SDS011;40582;53.100;6.686;2022-12-04T15:02:38;47.47;;;29.90;;
54683;SDS011;40582;53.100;6.686;2022-12-04T15:05:09;50.53;;;31.58;;
54683;SDS011;40582;53.100;6.686;2022-12-04T15:07:43;47.03;;;29.58;;
54683;SDS011;40582;53.100;6.686;2022-12-04T15:10:18;47.22;;;28.35;;
54683;SDS011;40582;53.100;6.686;2022-12-04T15:13:06;41.17;;;28.10;;
54683;SDS011;40582;53.100;6.686;2022-12-04T15:15:32;42.70;;;27.35;;
54683;SDS011;40582;53.100;6.686;2022-12-04T15:18:02;45.85;;;27.23;;
54683;SDS011;40582;53.100;6.686;2022-12-04T15:23:15;46.00;;;26.92;;
54683;SDS011;40582;53.100;6.686;2022-12-04T15:25:50;45.03;;;27.42;;
54683;SDS011;40582;53.100;6.686;2022-12-04T15:28:23;46.00;;;28.73;;
54683;SDS011;40582;53.100;6.686;2022-12-04T15:30:52;50.78;;;29.90;;
54683;SDS011;40582;53.100;6.686;2022-12-04T15:33:31;58.15;;;37.03;;
54683;SDS011;40582;53.100;6.686;2022-12-04T15:36:17;55.53;;;32.65;;
54683;SDS011;40582;53.100;6.686;2022-12-04T15:38:53;52.10;;;30.88;;
54683;SDS011;40582;53.100;6.686;2022-12-04T15:41:25;58.95;;;34.20;;
54683;SDS011;40582;53.100;6.686;2022-12-04T15:43:52;54.83;;;32.85;;
54683;SDS011;40582;53.100;6.686;2022-12-04T15:46:22;69.05;;;37.70;;
54683;SDS011;40582;53.100;6.686;2022-12-04T15:49:03;70.32;;;39.67;;
54683;SDS011;40582;53.100;6.686;2022-12-04T15:51:40;66.65;;;37.55;;
54683;SDS011;40582;53.100;6.686;2022-12-04T15:54:12;67.82;;;38.05;;
54683;SDS011;40582;53.100;6.686;2022-12-04T15:57:04;67.78;;;37.50;;
54683;SDS011;40582;53.100;6.686;2022-12-04T15:59:39;76.78;;;42.92;;
54683;SDS011;40582;53.100;6.686;2022-12-04T16:02:07;92.90;;;49.08;;
54683;SDS011;40582;53.100;6.686;2022-12-04T16:04:45;84.65;;;43.85;;
54683;SDS011;40582;53.100;6.686;2022-12-04T16:07:18;75.57;;;40.33;;
54683;SDS011;40582;53.100;6.686;2022-12-04T16:09:58;83.70;;;47.25;;
54683;SDS011;40582;53.100;6.686;2022-12-04T16:12:26;64.32;;;36.42;;
54683;SDS011;40582;53.100;6.686;2022-12-04T16:14:54;120.82;;;72.63;;
54683;SDS011;40582;53.100;6.686;2022-12-04T16:17:26;85.50;;;52.42;;
54683;SDS011;40582;53.100;6.686;2022-12-04T16:19:56;63.58;;;39.05;;
54683;SDS011;40582;53.100;6.686;2022-12-04T16:22:22;67.45;;;38.78;;
54683;SDS011;40582;53.100;6.686;2022-12-04T16:24:51;66.85;;;39.67;;
54683;SDS011;40582;53.100;6.686;2022-12-04T16:27:19;65.93;;;39.13;;
54683;SDS011;40582;53.100;6.686;2022-12-04T16:29:47;64.68;;;38.50;;
54683;SDS011;40582;53.100;6.686;2022-12-04T16:32:15;62.67;;;39.45;;
54683;SDS011;40582;53.100;6.686;2022-12-04T16:34:43;70.95;;;41.05;;
54683;SDS011;40582;53.100;6.686;2022-12-04T16:37:14;64.03;;;36.72;;
54683;SDS011;40582;53.100;6.686;2022-12-04T16:39:42;63.90;;;38.30;;
54683;SDS011;40582;53.100;6.686;2022-12-04T16:42:24;59.75;;;38.10;;
54683;SDS011;40582;53.100;6.686;2022-12-04T16:44:52;60.17;;;38.08;;
54683;SDS011;40582;53.100;6.686;2022-12-04T16:47:18;61.85;;;36.75;;
54683;SDS011;40582;53.100;6.686;2022-12-04T16:49:44;60.60;;;37.50;;
54683;SDS011;40582;53.100;6.686;2022-12-04T16:52:12;59.63;;;37.90;;
54683;SDS011;40582;53.100;6.686;2022-12-04T16:54:38;57.70;;;36.83;;
54683;SDS011;40582;53.100;6.686;2022-12-04T16:57:05;68.78;;;40.70;;
54683;SDS011;40582;53.100;6.686;2022-12-04T16:59:31;72.60;;;45.47;;
54683;SDS011;40582;53.100;6.686;2022-12-04T17:01:57;67.40;;;39.45;;
54683;SDS011;40582;53.100;6.686;2022-12-04T17:04:24;65.85;;;39.75;;
54683;SDS011;40582;53.100;6.686;2022-12-04T17:06:49;59.40;;;38.22;;
54683;SDS011;40582;53.100;6.686;2022-12-04T17:09:15;63.45;;;38.30;;
54683;SDS011;40582;53.100;6.686;2022-12-04T17:11:41;59.45;;;37.10;;
54683;SDS011;40582;53.100;6.686;2022-12-04T17:14:08;59.45;;;37.42;;